<?xml version='1.0' encoding='UTF-8'?>
<gpx xmlns="http://www.topografix.com/GPX/1/1" creator="www.balnam.be" version="1.1" xmlns:xsi="http://www.w3.org/2001/XMLSchema-instance" xsi:schemaLocation="http://www.topografix.com/GPX/1/1 http://www.topografix.com/GPX/1/1/gpx.xsd">
<trk>
<name>nrcvli19</name>
<cmt>v</cmt>
<desc>Villers-sur-Lesse Sentier n°i19 </desc>
<link href="https://chemins.be/villerssurlesse/sentier/i19"/><trkseg>
<trkpt lat="50.158492" lon="5.125212"><time>2026-05-03T05:30:57Z</time></trkpt>
<trkpt lat="50.158486" lon="5.125996"><time>2026-05-03T05:40:57Z</time></trkpt>
<trkpt lat="50.158663" lon="5.126461"><time>2026-05-03T05:50:57Z</time></trkpt>
<trkpt lat="50.158922" lon="5.126773"><time>2026-05-03T06:00:57Z</time></trkpt>
<trkpt lat="50.159072" lon="5.127223"><time>2026-05-03T06:10:57Z</time></trkpt>
<trkpt lat="50.159060" lon="5.127587"><time>2026-05-03T06:20:57Z</time></trkpt>
<trkpt lat="50.159228" lon="5.128037"><time>2026-05-03T06:30:57Z</time></trkpt>
<trkpt lat="50.159244" lon="5.128429"><time>2026-05-03T06:40:57Z</time></trkpt>
<trkpt lat="50.159312" lon="5.128990"><time>2026-05-03T06:50:57Z</time></trkpt>
<trkpt lat="50.159451" lon="5.129664"><time>2026-05-03T07:00:57Z</time></trkpt>
<trkpt lat="50.159768" lon="5.130789"><time>2026-05-03T07:10:57Z</time></trkpt>
<trkpt lat="50.159997" lon="5.131478"><time>2026-05-03T07:20:57Z</time></trkpt>
<trkpt lat="50.160092" lon="5.131984"><time>2026-05-03T07:30:57Z</time></trkpt>
<trkpt lat="50.160178" lon="5.132629"><time>2026-05-03T07:40:57Z</time></trkpt>
<trkpt lat="50.160319" lon="5.133065"><time>2026-05-03T07:50:57Z</time></trkpt>
<trkpt lat="50.160423" lon="5.133669"><time>2026-05-03T08:00:57Z</time></trkpt>
<trkpt lat="50.160600" lon="5.134133"><time>2026-05-03T08:10:57Z</time></trkpt>
<trkpt lat="50.160641" lon="5.134694"><time>2026-05-03T08:20:57Z</time></trkpt>
<trkpt lat="50.160754" lon="5.135199"><time>2026-05-03T08:30:57Z</time></trkpt>
<trkpt lat="50.161101" lon="5.135821"><time>2026-05-03T08:40:57Z</time></trkpt>
<trkpt lat="50.161215" lon="5.136285"><time>2026-05-03T08:50:57Z</time></trkpt>
<trkpt lat="50.161284" lon="5.136692"><time>2026-05-03T09:00:57Z</time></trkpt>
<trkpt lat="50.161360" lon="5.137365"><time>2026-05-03T09:10:57Z</time></trkpt>
<trkpt lat="50.161328" lon="5.138232"><time>2026-05-03T09:20:57Z</time></trkpt>
<trkpt lat="50.161982" lon="5.141280"><time>2026-05-03T09:30:57Z</time></trkpt>
<trkpt lat="50.162058" lon="5.142009"><time>2026-05-03T09:40:57Z</time></trkpt>
<trkpt lat="50.162643" lon="5.145853"><time>2026-05-03T09:50:57Z</time></trkpt>
<trkpt lat="50.163448" lon="5.146566"><time>2026-05-03T10:00:57Z</time></trkpt>
</trkseg>
</trk>
</gpx>